Terminal Aerodrome Forecast
Issued by NWS

Home | Current Version | Previous Version | Text Only | Print | Product List | Glossary On
Versions: 1 2 3 4 5 6 7 8 9 10 11 12 13 14
000
FTUS46 KLOX 230204 AAB
TAFWJF
TAF AMD
KWJF 230204Z 2302/2324 26015G21KT P6SM SCT025 BKN050
     FM230800 27023G29KT P6SM VCSH BKN025 OVC050
     FM231300 29024G32KT 6SM BLDU FEW025 SCT050=

USA.gov is the U.S. government's official web portal to all federal, state and local government web resources and services.